Time;durP1;ratioP1;P1;durP2;ratioP2;P2;SDS_P1;SDS_P2;PMS_P1;PMS_P2;Temp;Humidity;BMP_temperature;BMP_pressure;BME280_temperature;BME280_humidity;BME280_pressure;Samples;Min_cycle;Max_cycle;Signal;HPM_P1;HPM_P2
2024/01/19 00:00:24;;;;;;;2.92;2.10;;;2.20;76.90;;;;;;5031539;28;20026;-59
2024/01/19 00:02:50;;;;;;;3.25;2.20;;;2.20;77.00;;;;;;5039725;28;20037;-60
2024/01/19 00:05:18;;;;;;;3.33;2.05;;;2.10;77.00;;;;;;5069523;28;20052;-59
2024/01/19 00:07:44;;;;;;;2.92;1.75;;;2.10;77.10;;;;;;5038194;28;20372;-59
2024/01/19 00:10:10;;;;;;;2.65;1.77;;;2.10;77.10;;;;;;5040239;28;20128;-59
2024/01/19 00:12:35;;;;;;;2.25;1.95;;;2.10;77.20;;;;;;5034199;28;20038;-59
2024/01/19 00:15:08;;;;;;;1.63;1.50;;;2.10;77.20;;;;;;5034141;28;20037;-59
2024/01/19 00:17:35;;;;;;;5.68;2.85;;;2.10;77.20;;;;;;5034078;28;20036;-61
2024/01/19 00:20:01;;;;;;;4.68;2.08;;;2.10;77.50;;;;;;5035186;28;20037;-61
2024/01/19 00:22:27;;;;;;;9.63;2.10;;;2.10;77.50;;;;;;5034999;28;20024;-61
2024/01/19 00:24:53;;;;;;;4.95;2.38;;;2.10;77.50;;;;;;5042158;28;20041;-60
2024/01/19 00:27:18;;;;;;;5.55;2.05;;;2.10;77.60;;;;;;5037838;28;20026;-59
2024/01/19 00:29:44;;;;;;;3.10;2.22;;;2.10;77.90;;;;;;5035519;28;20251;-60
2024/01/19 00:32:10;;;;;;;4.22;3.13;;;2.10;78.00;;;;;;5038087;28;20051;-60
2024/01/19 00:34:36;;;;;;;4.10;1.70;;;2.10;78.20;;;;;;5031151;28;20403;-59
2024/01/19 00:37:02;;;;;;;2.30;1.73;;;2.10;78.00;;;;;;5034090;28;20021;-59
2024/01/19 00:39:27;;;;;;;3.00;1.60;;;2.20;77.90;;;;;;5034716;28;20100;-59
2024/01/19 00:41:53;;;;;;;3.10;1.88;;;2.20;77.90;;;;;;5037594;28;20031;-60
2024/01/19 00:44:19;;;;;;;2.85;1.60;;;2.10;78.00;;;;;;5042595;28;20029;-59
2024/01/19 00:46:45;;;;;;;1.83;1.30;;;2.10;77.90;;;;;;5034794;28;20049;-60
2024/01/19 00:49:10;;;;;;;1.83;1.67;;;2.10;78.20;;;;;;5031295;28;20040;-61
2024/01/19 00:51:36;;;;;;;2.38;2.03;;;2.10;78.30;;;;;;5031724;28;20071;-61
2024/01/19 00:54:03;;;;;;;7.43;1.80;;;2.10;78.20;;;;;;5035979;28;20036;-61
2024/01/19 00:56:29;;;;;;;3.65;1.85;;;2.20;78.40;;;;;;5032864;28;20087;-61
2024/01/19 00:58:55;;;;;;;1.60;1.50;;;2.10;78.30;;;;;;5032379;28;20022;-60
2024/01/19 01:01:20;;;;;;;2.05;1.40;;;2.10;78.80;;;;;;5038954;28;20245;-59
2024/01/19 01:03:48;;;;;;;3.58;1.67;;;2.20;79.20;;;;;;5036284;28;20029;-59
2024/01/19 01:06:14;;;;;;;6.97;1.80;;;2.20;79.10;;;;;;5029544;28;20473;-60
2024/01/19 01:08:39;;;;;;;1.13;0.82;;;2.30;79.10;;;;;;5033645;28;20033;-61
2024/01/19 01:11:05;;;;;;;4.25;1.58;;;2.30;79.20;;;;;;5029525;28;20052;-61
2024/01/19 01:13:32;;;;;;;2.90;1.63;;;2.40;79.30;;;;;;5033538;28;20693;-61
2024/01/19 01:15:58;;;;;;;1.95;1.55;;;2.40;79.50;;;;;;5034303;28;20030;-61
2024/01/19 01:18:23;;;;;;;1.90;1.70;;;2.40;79.60;;;;;;5027465;28;20040;-61
2024/01/19 01:20:51;;;;;;;4.20;1.67;;;2.30;80.10;;;;;;5034605;28;20051;-60
2024/01/19 01:23:16;;;;;;;2.38;1.23;;;2.30;80.30;;;;;;5030365;28;20124;-60
2024/01/19 01:25:43;;;;;;;6.82;1.55;;;2.30;80.30;;;;;;5026044;28;20057;-59
2024/01/19 01:28:09;;;;;;;1.80;1.63;;;2.40;80.30;;;;;;5032057;28;20024;-60
2024/01/19 01:30:35;;;;;;;2.53;1.45;;;2.40;80.50;;;;;;5031198;28;20041;-60
2024/01/19 01:33:01;;;;;;;4.25;1.55;;;2.40;80.50;;;;;;5039584;28;20033;-61
2024/01/19 01:35:26;;;;;;;1.48;1.20;;;2.40;80.60;;;;;;5026923;28;20033;-60
2024/01/19 01:37:52;;;;;;;2.35;0.70;;;2.40;80.60;;;;;;5032541;28;20037;-59
2024/01/19 01:40:18;;;;;;;1.38;1.17;;;2.50;80.60;;;;;;5028595;28;20076;-60
2024/01/19 01:42:44;;;;;;;4.22;1.75;;;2.50;80.70;;;;;;5036370;28;20037;-60
2024/01/19 01:45:10;;;;;;;0.55;0.55;;;2.50;80.60;;;;;;5029598;28;20061;-60
2024/01/19 01:47:36;;;;;;;3.10;1.15;;;2.50;81.10;;;;;;5031830;28;20621;-60
2024/01/19 01:50:04;;;;;;;0.95;0.68;;;2.50;81.10;;;;;;5035498;28;20552;-59
2024/01/19 01:52:30;;;;;;;2.20;1.20;;;2.40;81.10;;;;;;5033408;28;20112;-60
2024/01/19 01:54:55;;;;;;;3.05;1.02;;;2.50;81.10;;;;;;5032939;28;20100;-59
2024/01/19 01:57:24;;;;;;;1.52;1.05;;;2.50;81.10;;;;;;5031140;28;20030;-61
2024/01/19 01:59:51;;;;;;;1.77;1.42;;;2.50;81.10;;;;;;5033257;28;20029;-61
2024/01/19 02:02:18;;;;;;;4.20;0.90;;;2.40;81.40;;;;;;5036938;28;20112;-61
2024/01/19 02:04:43;;;;;;;0.80;0.80;;;2.50;81.70;;;;;;5032665;28;20028;-61
2024/01/19 02:07:09;;;;;;;0.85;0.63;;;2.40;81.60;;;;;;5033879;28;20469;-60
2024/01/19 02:09:36;;;;;;;0.95;0.70;;;2.40;81.40;;;;;;5041733;28;20037;-60
2024/01/19 02:12:03;;;;;;;2.55;1.13;;;2.40;81.30;;;;;;5032686;28;20022;-61
2024/01/19 02:14:29;;;;;;;1.08;0.73;;;2.40;81.40;;;;;;5030820;28;20440;-61
2024/01/19 02:16:54;;;;;;;0.90;0.50;;;2.40;81.60;;;;;;5036125;28;20025;-61
2024/01/19 02:19:20;;;;;;;0.95;0.75;;;2.40;81.70;;;;;;5030449;28;20046;-61
2024/01/19 02:21:46;;;;;;;1.38;1.15;;;2.30;81.80;;;;;;5031146;28;20431;-61
2024/01/19 02:24:13;;;;;;;1.67;0.77;;;2.30;81.80;;;;;;5031228;28;20390;-61
2024/01/19 02:26:39;;;;;;;0.85;0.77;;;2.30;82.00;;;;;;5030243;28;20029;-61
2024/01/19 02:29:05;;;;;;;1.13;0.68;;;2.30;82.00;;;;;;5030598;28;20043;-61
2024/01/19 02:31:31;;;;;;;1.08;0.57;;;2.20;82.30;;;;;;5028911;28;20029;-61
2024/01/19 02:33:57;;;;;;;0.73;0.65;;;2.20;82.20;;;;;;5030348;28;20095;-61
2024/01/19 02:36:24;;;;;;;0.57;0.57;;;2.30;82.10;;;;;;5028094;28;20423;-61
2024/01/19 02:38:49;;;;;;;0.85;0.65;;;2.20;82.20;;;;;;5029049;28;20044;-60
2024/01/19 02:41:15;;;;;;;2.75;1.05;;;2.20;82.50;;;;;;5025658;28;20493;-61
2024/01/19 02:43:41;;;;;;;1.25;0.68;;;2.20;82.90;;;;;;5025430;28;20099;-61
2024/01/19 02:46:08;;;;;;;1.25;1.13;;;2.10;83.10;;;;;;5031538;28;20022;-59
2024/01/19 02:48:34;;;;;;;0.88;0.70;;;2.10;83.20;;;;;;5029501;28;20041;-59
2024/01/19 02:51:00;;;;;;;0.70;0.60;;;2.10;83.10;;;;;;5029840;28;20042;-59
2024/01/19 02:53:26;;;;;;;0.52;0.52;;;2.10;83.00;;;;;;5028170;28;20060;-60
2024/01/19 02:55:51;;;;;;;0.80;0.43;;;2.20;83.00;;;;;;5032865;28;20021;-60
2024/01/19 02:58:17;;;;;;;1.55;0.77;;;2.10;83.10;;;;;;5026132;28;20036;-59
2024/01/19 03:00:44;;;;;;;0.95;0.82;;;2.10;83.20;;;;;;5031050;28;20060;-59
2024/01/19 03:03:09;;;;;;;1.10;0.70;;;2.10;83.20;;;;;;5028439;28;20033;-60
2024/01/19 03:05:35;;;;;;;1.10;0.68;;;2.10;83.50;;;;;;5026738;28;20034;-61
2024/01/19 03:08:01;;;;;;;1.35;0.80;;;2.10;83.40;;;;;;5033399;28;20261;-59
2024/01/19 03:10:27;;;;;;;3.97;1.08;;;2.10;83.70;;;;;;5029139;28;20033;-60
2024/01/19 03:12:52;;;;;;;2.80;1.23;;;2.10;83.80;;;;;;5029835;28;20108;-61
2024/01/19 03:15:18;;;;;;;0.80;0.80;;;2.10;83.70;;;;;;5029209;28;20362;-60
2024/01/19 03:17:44;;;;;;;1.08;0.93;;;2.10;83.90;;;;;;5039917;28;20042;-59
2024/01/19 03:20:10;;;;;;;1.48;0.98;;;2.00;83.90;;;;;;5041112;28;20099;-59
2024/01/19 03:22:36;;;;;;;0.95;0.88;;;2.00;83.80;;;;;;5038751;28;20033;-59
2024/01/19 03:25:02;;;;;;;0.80;0.80;;;2.00;83.80;;;;;;5033018;28;20660;-61
2024/01/19 03:27:28;;;;;;;3.20;1.55;;;2.00;83.80;;;;;;5030138;28;20119;-61
2024/01/19 03:29:55;;;;;;;1.13;0.80;;;2.00;83.90;;;;;;5032733;28;20041;-59
2024/01/19 03:32:21;;;;;;;1.60;1.50;;;1.90;83.90;;;;;;5034099;28;20032;-60
2024/01/19 03:34:47;;;;;;;1.35;1.05;;;1.90;84.10;;;;;;5030768;28;20382;-59
2024/01/19 03:37:13;;;;;;;1.95;1.45;;;1.90;84.00;;;;;;5036566;28;20033;-59
2024/01/19 03:39:39;;;;;;;4.43;1.55;;;1.90;84.00;;;;;;5032349;28;20028;-59
2024/01/19 03:42:05;;;;;;;1.65;1.40;;;1.90;84.10;;;;;;5034590;28;20034;-59
2024/01/19 03:44:31;;;;;;;2.58;1.55;;;1.90;84.50;;;;;;5039611;28;20033;-59
2024/01/19 03:46:59;;;;;;;2.25;1.63;;;1.90;83.80;;;;;;5040569;28;20043;-59
2024/01/19 03:49:25;;;;;;;1.58;1.20;;;1.90;83.80;;;;;;5039351;28;20396;-59
2024/01/19 03:52:02;;;;;;;2.58;1.70;;;1.90;83.90;;;;;;5037985;28;20032;-61
2024/01/19 03:54:28;;;;;;;1.33;1.10;;;1.90;83.80;;;;;;5039849;28;20029;-61
2024/01/19 03:56:57;;;;;;;2.75;1.50;;;1.90;83.80;;;;;;5040250;28;20048;-59
2024/01/19 03:59:23;;;;;;;4.28;1.60;;;1.90;83.80;;;;;;5039717;28;20092;-61
2024/01/19 04:01:48;;;;;;;1.73;1.25;;;1.90;83.80;;;;;;5039722;28;20515;-61
2024/01/19 04:04:14;;;;;;;2.28;1.20;;;1.90;83.90;;;;;;5038727;28;20070;-61
2024/01/19 04:06:40;;;;;;;2.05;1.77;;;1.90;83.80;;;;;;5041301;28;20033;-61
2024/01/19 04:09:06;;;;;;;3.55;2.33;;;1.90;83.90;;;;;;5039580;28;20025;-61
2024/01/19 04:11:36;;;;;;;3.45;1.95;;;1.90;84.00;;;;;;5039059;28;20156;-61
2024/01/19 04:14:02;;;;;;;6.05;1.73;;;1.80;84.00;;;;;;5040045;28;20043;-61
2024/01/19 04:16:28;;;;;;;2.30;1.83;;;1.80;84.10;;;;;;5037766;28;20439;-61
2024/01/19 04:18:54;;;;;;;2.88;1.70;;;1.80;84.20;;;;;;5038870;28;20083;-62
2024/01/19 04:21:19;;;;;;;3.38;1.90;;;1.80;84.20;;;;;;5034596;28;20136;-61
2024/01/19 04:23:45;;;;;;;4.50;2.15;;;1.80;84.20;;;;;;5036652;28;20033;-61
2024/01/19 04:26:11;;;;;;;2.67;1.67;;;1.80;84.10;;;;;;5035788;28;20057;-60
2024/01/19 04:28:39;;;;;;;3.30;1.73;;;1.80;84.00;;;;;;5039292;28;20035;-60
2024/01/19 04:31:06;;;;;;;1.70;1.40;;;1.80;84.00;;;;;;5031273;28;20484;-60
2024/01/19 04:33:32;;;;;;;1.73;1.45;;;1.90;83.90;;;;;;5035227;28;20025;-61
2024/01/19 04:35:58;;;;;;;3.20;1.70;;;1.90;83.80;;;;;;5035147;28;20025;-61
2024/01/19 04:38:23;;;;;;;4.25;2.00;;;1.90;83.70;;;;;;5030044;28;20091;-62
2024/01/19 04:40:49;;;;;;;1.48;1.30;;;1.90;83.50;;;;;;5037790;28;20081;-61
2024/01/19 04:43:15;;;;;;;4.03;1.80;;;2.00;83.40;;;;;;5036740;28;20109;-61
2024/01/19 04:45:41;;;;;;;1.90;1.42;;;2.00;83.20;;;;;;5035867;28;20036;-61
2024/01/19 04:48:06;;;;;;;3.33;1.73;;;1.90;83.20;;;;;;5037826;28;20048;-62
2024/01/19 04:50:32;;;;;;;3.63;1.67;;;1.90;83.10;;;;;;5034364;28;20199;-61
2024/01/19 04:52:58;;;;;;;1.20;1.08;;;1.90;83.00;;;;;;5036963;28;20935;-61
2024/01/19 04:55:23;;;;;;;1.92;1.55;;;1.90;83.10;;;;;;5032486;28;20030;-61
2024/01/19 04:57:49;;;;;;;4.65;1.83;;;1.90;83.00;;;;;;5037109;28;20108;-61
2024/01/19 05:00:15;;;;;;;4.22;1.65;;;1.90;82.90;;;;;;5041556;28;20037;-61
2024/01/19 05:02:41;;;;;;;1.83;1.30;;;2.00;82.80;;;;;;5038233;28;20021;-61
2024/01/19 05:05:06;;;;;;;4.32;1.30;;;2.00;82.80;;;;;;5029492;28;20053;-60
2024/01/19 05:07:33;;;;;;;1.58;1.23;;;2.00;82.70;;;;;;5034840;28;20203;-60
2024/01/19 05:10:00;;;;;;;3.10;1.73;;;2.00;82.60;;;;;;5039377;28;20174;-62
2024/01/19 05:12:25;;;;;;;1.60;1.50;;;2.10;82.50;;;;;;5030136;28;20049;-60
2024/01/19 05:14:52;;;;;;;1.02;0.95;;;2.10;82.30;;;;;;5038953;28;20110;-61
2024/01/19 05:17:18;;;;;;;2.13;1.52;;;2.00;82.10;;;;;;5040230;28;20034;-61
2024/01/19 05:19:43;;;;;;;1.73;1.45;;;2.10;82.10;;;;;;5038598;28;20120;-61
2024/01/19 05:22:09;;;;;;;2.50;1.38;;;2.10;82.10;;;;;;5037506;28;20166;-61
2024/01/19 05:24:43;;;;;;;3.88;1.65;;;2.00;81.90;;;;;;5039433;28;20040;-60
2024/01/19 05:27:09;;;;;;;1.83;1.00;;;2.10;81.90;;;;;;5032610;28;20033;-60
2024/01/19 05:29:35;;;;;;;4.00;1.75;;;2.00;81.80;;;;;;5031116;28;20033;-60
2024/01/19 05:32:02;;;;;;;2.67;1.20;;;2.10;81.80;;;;;;5031484;28;20025;-61
2024/01/19 05:34:27;;;;;;;3.80;1.52;;;2.10;81.90;;;;;;5036343;28;20022;-61
2024/01/19 05:36:53;;;;;;;1.80;1.52;;;2.10;81.80;;;;;;5029342;28;20029;-61
2024/01/19 05:39:19;;;;;;;2.85;1.65;;;2.00;82.00;;;;;;5015215;28;20594;-61
2024/01/19 05:41:45;;;;;;;3.13;2.00;;;2.00;82.20;;;;;;5031955;28;20483;-61
2024/01/19 05:44:11;;;;;;;3.15;1.83;;;1.90;82.50;;;;;;5040199;28;20045;-61
2024/01/19 05:46:37;;;;;;;2.28;2.08;;;1.90;82.70;;;;;;5034620;28;20030;-61
2024/01/19 05:49:02;;;;;;;2.08;1.52;;;1.90;82.70;;;;;;5033757;28;20029;-61
2024/01/19 05:51:28;;;;;;;2.88;1.55;;;1.90;82.70;;;;;;5037529;28;20045;-61
2024/01/19 05:53:54;;;;;;;2.38;1.30;;;1.90;82.60;;;;;;5035799;28;20108;-62
2024/01/19 05:56:19;;;;;;;1.35;1.10;;;1.90;82.60;;;;;;5032420;28;20031;-61
2024/01/19 05:58:45;;;;;;;1.17;1.08;;;1.90;82.50;;;;;;5033936;28;20021;-61
2024/01/19 06:01:11;;;;;;;1.05;0.95;;;1.90;82.50;;;;;;5038424;28;20019;-61
2024/01/19 06:03:37;;;;;;;2.55;1.35;;;1.90;82.50;;;;;;5030537;28;20028;-61
2024/01/19 06:06:03;;;;;;;1.58;1.40;;;2.00;82.30;;;;;;5032156;28;20489;-61
2024/01/19 06:08:30;;;;;;;3.65;1.33;;;2.00;82.50;;;;;;5041388;28;20032;-61
2024/01/19 06:10:56;;;;;;;2.80;1.10;;;2.00;82.50;;;;;;5028647;28;20039;-61
2024/01/19 06:13:22;;;;;;;2.80;1.02;;;2.00;82.40;;;;;;5033996;28;20037;-60
2024/01/19 06:15:49;;;;;;;2.22;1.35;;;2.00;82.30;;;;;;5030783;28;20108;-61
2024/01/19 06:18:14;;;;;;;1.13;1.02;;;2.00;82.20;;;;;;5036027;28;20025;-61
2024/01/19 06:20:42;;;;;;;1.70;1.13;;;2.10;82.20;;;;;;5033204;28;20053;-61
2024/01/19 06:23:12;;;;;;;1.90;1.13;;;2.00;82.10;;;;;;5035883;28;20025;-61
2024/01/19 06:25:39;;;;;;;5.32;1.10;;;2.00;82.10;;;;;;5064821;28;20037;-61
2024/01/19 06:28:06;;;;;;;1.40;1.08;;;2.00;82.10;;;;;;5039076;28;20037;-61
2024/01/19 06:30:32;;;;;;;0.73;0.60;;;2.00;82.10;;;;;;5025468;28;20432;-60
2024/01/19 06:32:58;;;;;;;2.70;1.15;;;1.90;82.00;;;;;;5038846;28;20469;-61
2024/01/19 06:35:24;;;;;;;1.33;1.02;;;1.90;82.00;;;;;;5032922;28;20416;-61
2024/01/19 06:37:49;;;;;;;1.38;1.10;;;1.90;82.00;;;;;;5038525;28;20029;-61
2024/01/19 06:40:15;;;;;;;1.75;0.98;;;1.80;81.90;;;;;;5034501;28;20488;-61
2024/01/19 06:42:43;;;;;;;1.27;1.17;;;1.80;81.90;;;;;;5031430;28;20029;-61
2024/01/19 06:45:09;;;;;;;3.45;1.15;;;1.70;81.90;;;;;;5037719;28;20021;-62
2024/01/19 06:47:35;;;;;;;2.53;1.38;;;1.70;81.90;;;;;;5036835;28;20037;-62
2024/01/19 06:50:01;;;;;;;1.27;1.17;;;1.60;81.90;;;;;;5035485;28;20435;-61
2024/01/19 06:52:26;;;;;;;1.75;1.27;;;1.60;81.90;;;;;;5041783;28;20428;-61
2024/01/19 06:54:52;;;;;;;2.72;1.35;;;1.60;81.90;;;;;;5036634;28;20086;-61
2024/01/19 06:57:17;;;;;;;1.98;1.00;;;1.50;81.80;;;;;;5037933;28;20033;-61
2024/01/19 06:59:43;;;;;;;5.20;1.42;;;1.50;81.80;;;;;;5039809;28;20032;-61
2024/01/19 07:02:09;;;;;;;4.28;1.63;;;1.40;81.70;;;;;;5033696;28;20033;-61
2024/01/19 07:04:34;;;;;;;1.23;1.00;;;1.40;81.70;;;;;;5029649;28;20028;-61
2024/01/19 07:07:00;;;;;;;4.45;1.35;;;1.40;81.70;;;;;;5032973;28;20083;-61
2024/01/19 07:09:29;;;;;;;3.00;1.33;;;1.40;81.70;;;;;;5034417;28;20070;-61
2024/01/19 07:11:54;;;;;;;2.05;1.40;;;1.50;81.60;;;;;;5030581;28;20033;-62
2024/01/19 07:14:20;;;;;;;2.22;1.98;;;1.50;82.00;;;;;;5031181;28;20120;-62
2024/01/19 07:16:45;;;;;;;2.47;1.65;;;1.50;82.20;;;;;;5031962;28;20099;-62
2024/01/19 07:19:11;;;;;;;3.50;2.38;;;1.60;82.40;;;;;;5030504;28;20512;-62
2024/01/19 07:21:40;;;;;;;3.85;1.70;;;1.60;82.70;;;;;;5043540;28;20159;-62
2024/01/19 07:24:10;;;;;;;2.88;1.90;;;1.70;82.70;;;;;;5033118;28;20033;-62
2024/01/19 07:26:36;;;;;;;2.67;1.98;;;1.80;82.60;;;;;;5023286;28;20434;-62
2024/01/19 07:29:06;;;;;;;1.60;1.50;;;1.80;82.50;;;;;;5026343;28;20040;-61
2024/01/19 07:31:32;;;;;;;1.40;1.15;;;1.90;82.50;;;;;;5030500;28;20029;-62
2024/01/19 07:33:57;;;;;;;2.08;1.88;;;1.90;82.40;;;;;;5032167;28;20029;-62
2024/01/19 07:36:23;;;;;;;28.60;2.38;;;2.00;82.30;;;;;;5024636;28;20664;-62
2024/01/19 07:38:49;;;;;;;34.70;3.40;;;2.00;82.30;;;;;;5027895;28;20026;-61
2024/01/19 07:41:14;;;;;;;28.60;2.17;;;2.00;82.70;;;;;;5058466;28;20116;-62
2024/01/19 07:43:40;;;;;;;32.20;3.13;;;1.90;83.00;;;;;;5027718;28;20033;-62
2024/01/19 07:46:06;;;;;;;18.33;3.38;;;1.90;83.20;;;;;;5018499;28;20025;-62
2024/01/19 07:48:32;;;;;;;3.28;2.70;;;1.90;83.40;;;;;;5024383;28;20116;-62
2024/01/19 07:50:57;;;;;;;2.65;2.33;;;1.90;83.90;;;;;;5024729;28;20045;-61
2024/01/19 07:53:23;;;;;;;5.75;3.08;;;1.80;83.80;;;;;;5022874;28;20032;-61
2024/01/19 07:55:49;;;;;;;2.97;2.38;;;1.90;83.80;;;;;;5029489;28;20499;-61
2024/01/19 07:58:16;;;;;;;3.72;2.97;;;1.90;83.80;;;;;;5023058;28;20034;-61
2024/01/19 08:00:41;;;;;;;3.53;2.83;;;1.90;83.80;;;;;;5027629;28;20026;-61
2024/01/19 08:03:08;;;;;;;12.75;3.60;;;2.00;84.00;;;;;;5025432;28;20508;-60
2024/01/19 08:05:34;;;;;;;6.68;3.58;;;2.00;84.00;;;;;;5031298;28;20385;-60
2024/01/19 08:07:59;;;;;;;5.10;3.08;;;2.00;84.00;;;;;;5025228;28;20026;-61
2024/01/19 08:10:25;;;;;;;4.72;3.42;;;2.00;84.00;;;;;;5029217;28;20037;-61
2024/01/19 08:12:51;;;;;;;8.55;3.38;;;2.00;84.20;;;;;;5034841;28;20069;-61
2024/01/19 08:15:17;;;;;;;8.63;3.30;;;1.90;84.40;;;;;;5031351;28;20162;-61
2024/01/19 08:17:43;;;;;;;5.28;3.28;;;1.90;84.50;;;;;;5030197;28;20599;-61
2024/01/19 08:20:10;;;;;;;4.68;3.30;;;1.90;84.50;;;;;;5027473;28;20405;-61
2024/01/19 08:22:36;;;;;;;5.38;3.53;;;1.90;84.70;;;;;;5029996;28;20045;-60
2024/01/19 08:25:02;;;;;;;4.03;2.83;;;1.90;84.80;;;;;;5033116;28;20034;-62
2024/01/19 08:27:28;;;;;;;12.70;3.80;;;1.90;84.80;;;;;;5028172;28;20075;-61
2024/01/19 08:29:53;;;;;;;5.35;2.60;;;1.90;84.80;;;;;;5029276;28;20366;-61
2024/01/19 08:32:19;;;;;;;6.13;3.40;;;1.90;84.80;;;;;;5031513;28;20086;-61
2024/01/19 08:34:45;;;;;;;5.07;2.90;;;2.00;84.80;;;;;;5033855;28;20392;-61
2024/01/19 08:37:11;;;;;;;3.78;2.85;;;2.00;85.20;;;;;;5031653;28;20041;-61
2024/01/19 08:39:37;;;;;;;7.55;4.07;;;2.10;84.70;;;;;;5032127;28;20033;-60
2024/01/19 08:42:05;;;;;;;5.72;2.38;;;2.10;84.70;;;;;;5029966;28;20056;-61
2024/01/19 08:44:31;;;;;;;6.43;3.95;;;2.00;84.70;;;;;;5027551;28;20029;-60
2024/01/19 08:46:57;;;;;;;5.70;3.30;;;2.00;84.90;;;;;;5030456;28;20330;-61
2024/01/19 08:49:24;;;;;;;4.32;2.15;;;2.00;85.00;;;;;;5030984;28;20102;-61
2024/01/19 08:51:51;;;;;;;5.07;3.05;;;2.00;85.10;;;;;;5032172;28;20120;-61
2024/01/19 08:54:17;;;;;;;9.90;3.67;;;2.10;85.00;;;;;;5029721;28;20044;-61
2024/01/19 08:56:43;;;;;;;4.95;3.67;;;2.00;85.00;;;;;;5030696;28;20029;-61
2024/01/19 08:59:09;;;;;;;6.22;4.13;;;2.10;84.90;;;;;;5026232;28;20013;-68
2024/01/19 09:01:35;;;;;;;4.93;2.88;;;2.10;84.90;;;;;;5026624;28;20492;-69
2024/01/19 09:04:00;;;;;;;3.63;2.85;;;2.10;84.90;;;;;;5039257;28;20111;-69
2024/01/19 09:06:26;;;;;;;5.50;2.83;;;2.20;84.80;;;;;;5060619;28;20029;-67
2024/01/19 09:08:52;;;;;;;6.30;3.35;;;2.20;84.70;;;;;;5034866;28;20057;-65
2024/01/19 09:11:18;;;;;;;7.55;4.00;;;2.30;84.80;;;;;;5031706;28;20148;-66
2024/01/19 09:13:43;;;;;;;5.85;3.63;;;2.30;84.80;;;;;;5031785;28;20021;-65
2024/01/19 09:16:10;;;;;;;3.70;3.25;;;2.40;84.80;;;;;;5024798;28;20026;-65
2024/01/19 09:18:37;;;;;;;6.65;3.50;;;2.50;84.50;;;;;;5032362;28;20042;-63
2024/01/19 09:21:03;;;;;;;6.25;3.35;;;2.50;84.30;;;;;;5033578;28;20083;-66
2024/01/19 09:23:28;;;;;;;3.08;2.53;;;2.50;84.20;;;;;;5030469;28;20057;-65
2024/01/19 09:25:54;;;;;;;7.70;3.58;;;2.50;84.30;;;;;;5038715;28;20056;-64
2024/01/19 09:28:20;;;;;;;6.47;3.53;;;2.40;84.30;;;;;;5038198;28;20029;-63
2024/01/19 09:30:47;;;;;;;5.85;3.63;;;2.40;84.30;;;;;;5035495;28;20083;-64
2024/01/19 09:33:14;;;;;;;4.72;3.15;;;2.40;84.30;;;;;;5027748;28;20025;-63
2024/01/19 09:35:40;;;;;;;7.07;3.35;;;2.40;84.50;;;;;;5039253;28;20048;-63
2024/01/19 09:38:06;;;;;;;20.92;4.30;;;2.50;84.90;;;;;;5032874;28;20056;-64
2024/01/19 09:40:32;;;;;;;5.80;3.08;;;2.50;84.20;;;;;;5025711;28;20033;-66
2024/01/19 09:42:58;;;;;;;9.43;4.75;;;2.50;84.20;;;;;;5026898;28;20030;-65
2024/01/19 09:45:27;;;;;;;8.52;5.03;;;2.50;84.30;;;;;;5023684;28;20408;-65
2024/01/19 09:47:56;;;;;;;5.38;4.13;;;2.40;84.40;;;;;;5017171;28;20476;-65
2024/01/19 09:50:31;;;;;;;6.53;3.45;;;2.40;84.60;;;;;;5024585;28;20025;-65
2024/01/19 09:52:59;;;;;;;5.25;3.92;;;2.40;84.70;;;;;;5033370;28;20029;-65
2024/01/19 09:55:26;;;;;;;25.25;4.30;;;2.40;84.60;;;;;;5032043;28;20055;-65
2024/01/19 09:57:52;;;;;;;8.65;5.45;;;2.50;84.50;;;;;;5026748;28;20042;-65
2024/01/19 10:00:20;;;;;;;12.10;4.97;;;2.40;84.70;;;;;;5058363;28;20087;-65
2024/01/19 10:02:51;;;;;;;6.78;3.92;;;2.40;84.90;;;;;;5026995;28;20029;-65
2024/01/19 10:05:18;;;;;;;6.25;3.67;;;2.50;84.80;;;;;;5024985;28;20037;-68
2024/01/19 10:07:46;;;;;;;7.13;4.40;;;2.50;84.60;;;;;;5028115;28;20431;-64
2024/01/19 10:10:12;;;;;;;7.43;3.78;;;2.60;84.60;;;;;;5060243;28;20032;-65
2024/01/19 10:12:38;;;;;;;6.63;4.32;;;2.60;84.50;;;;;;5033988;28;20541;-61
2024/01/19 10:15:11;;;;;;;7.68;5.53;;;2.60;84.50;;;;;;5027126;28;20060;-63
2024/01/19 10:17:38;;;;;;;7.68;4.78;;;2.50;84.90;;;;;;5030349;28;20091;-63
2024/01/19 10:20:06;;;;;;;7.43;5.65;;;2.40;85.30;;;;;;5027360;28;20262;-64
2024/01/19 10:22:32;;;;;;;7.55;5.05;;;2.50;85.40;;;;;;5021485;28;20039;-62
2024/01/19 10:25:14;;;;;;;8.55;5.18;;;2.60;85.20;;;;;;5028883;28;20103;-62
2024/01/19 10:27:41;;;;;;;10.85;5.40;;;2.70;85.20;;;;;;5029922;28;20030;-62
2024/01/19 10:30:12;;;;;;;6.57;4.90;;;2.70;85.30;;;;;;5033078;28;20499;-65
2024/01/19 10:32:42;;;;;;;8.95;5.40;;;2.70;85.40;;;;;;5044034;28;20500;-64
2024/01/19 10:35:10;;;;;;;9.25;4.82;;;2.80;85.30;;;;;;5025767;28;20104;-68
2024/01/19 10:37:36;;;;;;;7.07;4.53;;;3.00;85.00;;;;;;5024784;28;20028;-66
2024/01/19 10:40:21;;;;;;;6.63;4.63;;;3.10;84.80;;;;;;5020201;28;20477;-64
2024/01/19 10:42:54;;;;;;;10.57;5.32;;;3.20;84.50;;;;;;5030178;28;20029;-64
2024/01/19 10:45:23;;;;;;;6.75;4.28;;;3.20;84.60;;;;;;5027496;28;20017;-64
2024/01/19 10:47:52;;;;;;;7.47;4.60;;;3.50;84.20;;;;;;5027198;28;20452;-65
2024/01/19 10:50:19;;;;;;;11.02;4.85;;;4.10;83.80;;;;;;5026649;28;20021;-64
2024/01/19 10:52:47;;;;;;;10.25;5.28;;;5.10;82.00;;;;;;5030558;28;20037;-64
2024/01/19 10:55:21;;;;;;;7.32;5.00;;;6.00;80.20;;;;;;5033094;28;20056;-64
2024/01/19 10:57:55;;;;;;;7.35;3.75;;;7.00;76.60;;;;;;5029110;28;20067;-64
2024/01/19 11:00:23;;;;;;;6.55;3.72;;;8.30;74.60;;;;;;5031249;28;20017;-64
2024/01/19 11:02:51;;;;;;;4.13;3.13;;;9.80;70.60;;;;;;5027521;28;20021;-64
2024/01/19 11:05:19;;;;;;;5.68;2.90;;;11.20;67.80;;;;;;5033578;28;20461;-65
2024/01/19 11:07:49;;;;;;;7.95;3.50;;;11.90;64.80;;;;;;5029050;28;20045;-64
2024/01/19 11:10:14;;;;;;;6.03;3.38;;;12.20;63.30;;;;;;5038588;28;20112;-65
2024/01/19 11:12:47;;;;;;;5.03;2.67;;;12.40;62.50;;;;;;5028858;28;20536;-65
2024/01/19 11:15:25;;;;;;;7.10;2.58;;;12.80;61.60;;;;;;5032320;28;20033;-65
2024/01/19 11:17:54;;;;;;;5.20;2.03;;;13.70;59.50;;;;;;5028910;28;20047;-65
2024/01/19 11:20:22;;;;;;;5.60;2.00;;;14.40;57.40;;;;;;5027648;28;20060;-65
2024/01/19 11:22:48;;;;;;;10.93;3.42;;;14.90;55.70;;;;;;5028578;28;20080;-65
2024/01/19 11:25:20;;;;;;;4.15;1.58;;;15.30;53.90;;;;;;5025923;28;20034;-65
2024/01/19 11:27:56;;;;;;;2.70;1.85;;;15.50;52.20;;;;;;5028230;28;20107;-65
2024/01/19 11:30:45;;;;;;;4.03;2.28;;;15.60;51.90;;;;;;5035980;28;20030;-65
2024/01/19 11:33:20;;;;;;;4.88;1.77;;;15.80;51.70;;;;;;5026315;28;20036;-65
2024/01/19 11:35:48;;;;;;;1.75;1.58;;;16.70;51.50;;;;;;5025856;28;20037;-65
2024/01/19 11:38:36;;;;;;;3.67;1.88;;;17.10;49.20;;;;;;5028665;28;20392;-65
2024/01/19 11:41:05;;;;;;;1.77;1.48;;;17.10;48.10;;;;;;5028829;28;20384;-65
2024/01/19 11:43:41;;;;;;;2.70;1.95;;;17.30;48.20;;;;;;5027122;28;20121;-65
2024/01/19 11:46:09;;;;;;;3.58;1.83;;;17.80;45.80;;;;;;5028580;28;20136;-65
2024/01/19 11:48:40;;;;;;;3.45;1.75;;;17.60;46.70;;;;;;5031571;28;20037;-65
2024/01/19 11:51:06;;;;;;;7.22;2.08;;;17.90;46.30;;;;;;5035382;28;20124;-66
2024/01/19 11:53:58;;;;;;;5.85;2.50;;;18.00;45.10;;;;;;5037586;28;20081;-65
2024/01/19 11:56:25;;;;;;;7.18;1.98;;;18.00;44.70;;;;;;5024105;28;20469;-65
2024/01/19 11:58:51;;;;;;;2.45;1.70;;;17.90;45.10;;;;;;5030090;28;20124;-66
2024/01/19 12:01:17;;;;;;;1.85;1.65;;;17.90;45.00;;;;;;5029476;28;20036;-66
2024/01/19 12:03:43;;;;;;;4.40;1.60;;;17.80;45.40;;;;;;5027666;28;20025;-65
2024/01/19 12:06:09;;;;;;;4.82;1.55;;;17.30;45.70;;;;;;5032419;28;20617;-69
2024/01/19 12:08:35;;;;;;;4.53;2.38;;;16.00;46.50;;;;;;5032672;28;20041;-65
2024/01/19 12:11:11;;;;;;;3.35;2.10;;;14.70;48.50;;;;;;5034746;28;20060;-65
2024/01/19 12:13:41;;;;;;;3.90;1.95;;;13.50;50.70;;;;;;5028398;28;20504;-65
2024/01/19 12:16:07;;;;;;;2.97;1.45;;;12.40;53.20;;;;;;5035242;28;20037;-65
2024/01/19 12:18:35;;;;;;;3.20;1.65;;;11.60;54.60;;;;;;5029312;28;20033;-65
2024/01/19 12:21:01;;;;;;;3.58;2.20;;;11.20;55.90;;;;;;5037417;28;20049;-65
2024/01/19 12:23:32;;;;;;;2.03;1.45;;;10.60;57.10;;;;;;5035025;28;20026;-65
2024/01/19 12:25:59;;;;;;;2.42;1.75;;;10.00;58.20;;;;;;5031092;28;20051;-65
2024/01/19 12:28:26;;;;;;;1.50;1.40;;;9.40;59.90;;;;;;5032596;28;20480;-65
2024/01/19 12:30:52;;;;;;;4.47;1.40;;;9.90;61.50;;;;;;5029774;28;20068;-65
2024/01/19 12:33:25;;;;;;;3.28;1.42;;;11.70;59.10;;;;;;5033200;28;20028;-66
2024/01/19 12:36:11;;;;;;;2.78;1.50;;;13.70;55.10;;;;;;5028716;28;20443;-65
2024/01/19 12:38:37;;;;;;;2.65;1.48;;;15.40;51.20;;;;;;5028620;28;20029;-66
2024/01/19 12:41:03;;;;;;;3.60;1.38;;;16.80;48.60;;;;;;5034253;28;20329;-66
2024/01/19 12:43:33;;;;;;;7.95;1.88;;;17.40;45.70;;;;;;5034830;28;20025;-65
2024/01/19 12:46:03;;;;;;;2.35;1.23;;;17.30;45.70;;;;;;5031745;28;20107;-65
2024/01/19 12:48:29;;;;;;;2.47;1.40;;;17.40;45.00;;;;;;5032369;28;20477;-65
2024/01/19 12:50:55;;;;;;;3.10;1.35;;;17.30;45.10;;;;;;5038391;28;20085;-65
2024/01/19 12:53:20;;;;;;;2.88;1.63;;;16.80;45.30;;;;;;5027923;28;20029;-69